Time;durP1;ratioP1;P1;durP2;ratioP2;P2;SDS_P1;SDS_P2;PMS_P1;PMS_P2;Temp;Humidity;BMP_temperature;BMP_pressure;BME280_temperature;BME280_humidity;BME280_pressure;Samples;Min_cycle;Max_cycle;Signal;HPM_P1;HPM_P2
2021/11/16 00:00:12;;;;;;;45.47;26.42;;;;;;;7.83;63.72;101447.53;5069073;28;20127;-74
2021/11/16 00:02:40;;;;;;;51.70;28.88;;;;;;;7.83;63.72;101448.41;5066620;28;20060;-74
2021/11/16 00:05:08;;;;;;;52.47;26.35;;;;;;;7.86;63.43;101442.16;5047039;28;20053;-72
2021/11/16 00:07:35;;;;;;;55.83;29.65;;;;;;;7.87;63.51;101435.97;5067555;28;20044;-74
2021/11/16 00:10:05;;;;;;;55.25;26.20;;;;;;;7.88;63.59;101439.47;5066367;28;20682;-74
2021/11/16 00:12:34;;;;;;;49.30;27.77;;;;;;;7.86;63.58;101426.38;5066947;28;20059;-74
2021/11/16 00:15:01;;;;;;;52.03;27.65;;;;;;;7.87;63.68;101427.22;5068010;28;20143;-73
2021/11/16 00:17:29;;;;;;;55.15;29.17;;;;;;;7.89;63.60;101428.88;5068294;28;20104;-73
2021/11/16 00:19:56;;;;;;;53.55;30.13;;;;;;;7.91;63.62;101421.78;5065950;28;20041;-73
2021/11/16 00:22:23;;;;;;;52.80;27.77;;;;;;;7.94;63.46;101424.28;5066958;28;20048;-72
2021/11/16 00:25:07;;;;;;;68.07;37.40;;;;;;;7.94;63.56;101419.00;5066448;28;20369;-75
2021/11/16 00:27:37;;;;;;;50.25;27.80;;;;;;;7.95;63.51;101414.59;5050614;28;20484;-75
2021/11/16 00:30:05;;;;;;;52.95;30.05;;;;;;;7.94;63.64;101412.88;5067977;28;20048;-75
2021/11/16 00:32:32;;;;;;;50.88;28.02;;;;;;;7.97;63.66;101412.75;5065817;28;20052;-75
2021/11/16 00:35:00;;;;;;;52.78;32.58;;;;;;;7.97;63.62;101407.50;5065774;28;20052;-75
2021/11/16 00:37:27;;;;;;;47.40;23.85;;;;;;;8.00;63.53;101405.59;5066397;28;20041;-73
2021/11/16 00:39:54;;;;;;;52.10;28.35;;;;;;;8.00;63.60;101402.09;5065596;28;20044;-74
2021/11/16 00:42:21;;;;;;;46.40;28.63;;;;;;;8.00;63.63;101399.47;5065950;28;20052;-73
2021/11/16 00:44:49;;;;;;;48.80;28.40;;;;;;;8.05;63.54;101397.50;5068395;28;20052;-73
2021/11/16 00:47:16;;;;;;;49.60;28.23;;;;;;;8.07;63.58;101400.91;5067960;28;20051;-74
2021/11/16 00:49:43;;;;;;;53.97;28.88;;;;;;;8.09;63.42;101401.72;5067223;28;20484;-74
2021/11/16 00:52:10;;;;;;;54.83;30.45;;;;;;;8.10;63.56;101403.41;5066728;28;20037;-74
2021/11/16 00:54:38;;;;;;;60.70;30.20;;;;;;;8.11;63.58;101401.63;5065889;28;20045;-74
2021/11/16 00:57:06;;;;;;;50.13;28.67;;;;;;;8.11;63.39;101397.22;5065593;28;20045;-73
2021/11/16 00:59:33;;;;;;;61.72;34.88;;;;;;;8.13;63.44;101402.44;5065397;28;20087;-74
2021/11/16 01:02:03;;;;;;;52.30;30.13;;;;;;;8.16;63.40;101392.63;5048323;28;20512;-74
2021/11/16 01:04:30;;;;;;;60.42;30.83;;;;;;;8.17;63.28;101388.19;5065372;28;20049;-74
2021/11/16 01:06:58;;;;;;;58.38;33.40;;;;;;;8.18;63.07;101387.28;5066381;28;20381;-74
2021/11/16 01:09:26;;;;;;;55.03;30.63;;;;;;;8.15;63.31;101390.91;5065914;28;20053;-73
2021/11/16 01:11:54;;;;;;;58.53;30.00;;;;;;;8.16;63.32;101384.72;5049353;28;20055;-74
2021/11/16 01:14:21;;;;;;;53.38;29.85;;;;;;;8.18;63.33;101398.66;5071456;28;20051;-74
2021/11/16 01:16:49;;;;;;;57.22;31.65;;;;;;;8.18;63.35;101392.56;5068630;28;20051;-72
2021/11/16 01:19:17;;;;;;;53.67;30.70;;;;;;;8.20;63.49;101388.06;5068245;28;20045;-74
2021/11/16 01:21:44;;;;;;;52.78;30.10;;;;;;;8.20;63.23;101381.03;5067132;28;20045;-75
2021/11/16 01:24:11;;;;;;;46.13;27.63;;;;;;;8.21;63.29;101369.59;5067321;28;20059;-73
2021/11/16 01:26:38;;;;;;;45.63;24.42;;;;;;;8.22;63.14;101370.44;5066682;28;20500;-74
2021/11/16 01:29:05;;;;;;;55.13;29.30;;;;;;;8.18;63.26;101369.72;5066367;28;20128;-75
2021/11/16 01:31:33;;;;;;;57.92;31.90;;;;;;;8.22;63.42;101370.44;5067199;28;20052;-75
2021/11/16 01:34:02;;;;;;;57.05;32.97;;;;;;;8.23;63.36;101373.00;5064834;28;20057;-73
2021/11/16 01:36:30;;;;;;;60.92;32.45;;;;;;;8.27;63.21;101373.72;5065860;28;20051;-73
2021/11/16 01:38:58;;;;;;;52.50;25.83;;;;;;;8.30;63.15;101367.44;5065236;28;20059;-74
2021/11/16 01:41:30;;;;;;;45.85;27.48;;;;;;;8.29;62.89;101371.03;5065888;28;20068;-73
2021/11/16 01:43:57;;;;;;;58.22;34.67;;;;;;;8.30;63.10;101367.44;5067642;28;20072;-74
2021/11/16 01:46:25;;;;;;;61.00;33.58;;;;;;;8.32;63.18;101365.59;5066678;28;20135;-73
2021/11/16 01:48:54;;;;;;;44.05;24.25;;;;;;;8.35;62.94;101354.94;5068124;28;20045;-73
2021/11/16 01:51:24;;;;;;;48.35;28.88;;;;;;;8.32;63.09;101355.06;5070441;28;20051;-73
2021/11/16 01:53:56;;;;;;;56.72;33.67;;;;;;;8.29;63.05;101348.19;5066681;28;20106;-74
2021/11/16 01:56:23;;;;;;;58.83;31.77;;;;;;;8.31;63.17;101353.38;5066131;28;20497;-75
2021/11/16 01:58:50;;;;;;;56.60;30.30;;;;;;;8.31;62.77;101348.13;5064986;28;20052;-75
2021/11/16 02:01:17;;;;;;;58.35;29.95;;;;;;;8.31;63.01;101343.69;5066207;28;20507;-73
2021/11/16 02:03:44;;;;;;;57.67;33.08;;;;;;;8.30;63.00;101352.53;5066498;28;20067;-73
2021/11/16 02:06:20;;;;;;;59.15;32.05;;;;;;;8.30;63.08;101349.03;5064049;28;20047;-74
2021/11/16 02:08:48;;;;;;;56.88;34.10;;;;;;;8.30;62.89;101341.13;5067175;28;20058;-74
2021/11/16 02:11:16;;;;;;;56.00;30.55;;;;;;;8.31;63.04;101327.06;5069700;28;20049;-72
2021/11/16 02:13:43;;;;;;;63.38;27.17;;;;;;;8.33;62.98;101330.47;5068952;28;20048;-74
2021/11/16 02:16:10;;;;;;;55.38;33.47;;;;;;;8.27;63.06;101330.75;5069775;28;20082;-74
2021/11/16 02:18:38;;;;;;;58.10;33.40;;;;;;;8.28;63.03;101319.28;5070039;28;20052;-72
2021/11/16 02:21:08;;;;;;;62.00;34.58;;;;;;;8.29;62.96;101323.66;5069789;28;20052;-72
2021/11/16 02:23:35;;;;;;;60.33;35.00;;;;;;;8.30;62.94;101323.56;5069348;28;20048;-73
2021/11/16 02:26:02;;;;;;;52.97;33.03;;;;;;;8.33;62.79;101312.88;5070230;28;20051;-73
2021/11/16 02:28:29;;;;;;;57.63;32.03;;;;;;;8.32;62.89;101311.19;5068028;28;20659;-74
2021/11/16 02:30:56;;;;;;;61.72;30.02;;;;;;;8.30;62.95;101309.53;5069615;28;20048;-74
2021/11/16 02:33:24;;;;;;;62.47;30.52;;;;;;;8.30;62.82;101307.78;5069282;28;20055;-74
2021/11/16 02:35:51;;;;;;;63.30;33.75;;;;;;;8.30;62.92;101304.28;5066814;28;20055;-74
2021/11/16 02:38:21;;;;;;;61.60;32.45;;;;;;;8.31;62.97;101298.09;5069540;28;20098;-73
2021/11/16 02:40:48;;;;;;;65.15;38.33;;;;;;;8.30;62.92;101301.66;5068633;28;20060;-75
2021/11/16 02:43:16;;;;;;;56.97;28.98;;;;;;;8.32;62.89;101291.91;5070366;28;20044;-74
2021/11/16 02:45:43;;;;;;;62.28;32.10;;;;;;;8.38;62.76;101286.38;5068929;28;20060;-74
2021/11/16 02:48:13;;;;;;;48.67;24.00;;;;;;;8.36;62.80;101285.59;5069254;28;20228;-72
2021/11/16 02:50:41;;;;;;;67.20;35.35;;;;;;;8.31;62.90;101285.78;5068927;28;20052;-73
2021/11/16 02:53:08;;;;;;;60.15;31.95;;;;;;;8.33;62.88;101288.34;5069585;28;20056;-73
2021/11/16 02:55:37;;;;;;;54.58;29.33;;;;;;;8.33;62.84;101280.44;5067655;28;20051;-73
2021/11/16 02:58:04;;;;;;;67.55;30.90;;;;;;;8.31;62.88;101282.31;5069422;28;20044;-73
2021/11/16 03:00:32;;;;;;;56.35;30.05;;;;;;;8.32;62.83;101281.38;5069404;28;20291;-73
2021/11/16 03:02:59;;;;;;;46.60;27.73;;;;;;;8.32;62.95;101281.38;5068726;28;20047;-72
2021/11/16 03:05:31;;;;;;;63.50;34.92;;;;;;;8.29;62.91;101282.38;5068241;28;20044;-73
2021/11/16 03:07:59;;;;;;;60.08;29.38;;;;;;;8.28;63.00;101287.72;5069794;28;20044;-74
2021/11/16 03:10:29;;;;;;;64.18;35.47;;;;;;;8.25;63.09;101283.44;5068771;28;20135;-73
2021/11/16 03:12:58;;;;;;;60.00;32.47;;;;;;;8.28;62.97;101283.28;5069062;28;20058;-74
2021/11/16 03:15:25;;;;;;;57.72;29.27;;;;;;;8.27;62.94;101284.22;5068497;28;20048;-74
2021/11/16 03:17:53;;;;;;;59.45;31.50;;;;;;;8.30;62.94;101285.84;5068801;28;20667;-73
2021/11/16 03:20:21;;;;;;;64.45;33.88;;;;;;;8.28;62.86;101280.66;5067664;28;20615;-75
2021/11/16 03:22:51;;;;;;;55.80;27.50;;;;;;;8.25;62.91;101278.19;5069312;28;20053;-73
2021/11/16 03:25:23;;;;;;;64.85;33.60;;;;;;;8.24;63.02;101285.22;5069925;28;20044;-73
2021/11/16 03:27:56;;;;;;;61.60;30.70;;;;;;;8.23;63.22;101278.25;5069752;28;20056;-73
2021/11/16 03:30:25;;;;;;;66.55;31.73;;;;;;;8.22;63.23;101281.78;5068624;28;20098;-73
2021/11/16 03:32:52;;;;;;;63.65;30.45;;;;;;;8.25;63.02;101280.81;5068158;28;20049;-73
2021/11/16 03:35:19;;;;;;;62.47;29.58;;;;;;;8.26;63.15;101274.63;5070361;28;20382;-75
2021/11/16 03:37:51;;;;;;;61.70;30.63;;;;;;;8.28;63.09;101271.91;5068151;28;20055;-74
2021/11/16 03:40:21;;;;;;;59.03;30.55;;;;;;;8.25;63.13;101270.28;5067924;28;20047;-73
2021/11/16 03:42:50;;;;;;;59.33;33.50;;;;;;;8.27;63.26;101267.59;5068181;28;20053;-74
2021/11/16 03:45:22;;;;;;;62.85;36.08;;;;;;;8.30;63.12;101281.47;5050608;28;20048;-72
2021/11/16 03:47:51;;;;;;;57.88;29.75;;;;;;;8.28;63.05;101280.66;5069207;28;20048;-72
2021/11/16 03:50:20;;;;;;;61.58;31.58;;;;;;;8.22;63.22;101283.59;5068018;28;20041;-73
2021/11/16 03:52:53;;;;;;;66.78;32.40;;;;;;;8.24;63.21;101284.34;5069074;28;20053;-73
2021/11/16 03:55:22;;;;;;;60.00;31.08;;;;;;;8.23;63.02;101288.78;5068787;28;20408;-72
2021/11/16 03:57:54;;;;;;;62.67;30.70;;;;;;;8.22;63.19;101287.06;5067970;28;20055;-73
2021/11/16 04:00:25;;;;;;;59.72;33.90;;;;;;;8.20;63.33;101283.66;5050915;28;20044;-74
2021/11/16 04:02:54;;;;;;;63.00;30.05;;;;;;;8.22;63.21;101286.22;5068512;28;20045;-73
2021/11/16 04:05:21;;;;;;;58.22;31.00;;;;;;;8.23;63.37;101286.16;5066983;28;20056;-74
2021/11/16 04:07:48;;;;;;;63.55;28.67;;;;;;;8.24;63.21;101287.00;5068319;28;20066;-74
2021/11/16 04:10:15;;;;;;;57.33;28.75;;;;;;;8.22;63.21;101278.31;5067740;28;20408;-73
2021/11/16 04:12:44;;;;;;;64.82;35.08;;;;;;;8.19;63.28;101275.81;5067583;28;20048;-73
2021/11/16 04:15:14;;;;;;;53.58;28.15;;;;;;;8.19;63.30;101267.94;5050074;28;20071;-73
2021/11/16 04:17:44;;;;;;;50.80;26.70;;;;;;;8.21;63.20;101272.22;5067522;28;20063;-72
2021/11/16 04:20:14;;;;;;;53.55;28.48;;;;;;;8.22;63.14;101267.78;5067252;28;20048;-71
2021/11/16 04:22:42;;;;;;;55.90;32.97;;;;;;;8.19;63.14;101266.16;5068213;28;20799;-73
2021/11/16 04:25:10;;;;;;;62.78;31.38;;;;;;;8.20;63.31;101273.13;5068213;28;20076;-73
2021/11/16 04:27:38;;;;;;;60.03;29.17;;;;;;;8.21;63.41;101279.22;5015978;28;20056;-74
2021/11/16 04:30:07;;;;;;;77.72;37.47;;;;;;;8.17;63.48;101275.88;5067795;28;20048;-72
2021/11/16 04:32:34;;;;;;;66.65;34.90;;;;;;;8.19;63.49;101275.81;5067307;28;20182;-73
2021/11/16 04:35:02;;;;;;;70.85;38.13;;;;;;;8.21;63.12;101280.09;5066441;28;20044;-73
2021/11/16 04:37:30;;;;;;;57.28;25.52;;;;;;;8.27;63.18;101267.59;5068981;28;20090;-74
2021/11/16 04:39:58;;;;;;;68.72;32.40;;;;;;;8.27;63.17;101278.97;5066950;28;20051;-72
2021/11/16 04:42:27;;;;;;;59.92;29.17;;;;;;;8.29;63.22;101271.00;5066781;28;20048;-72
2021/11/16 04:44:54;;;;;;;61.78;31.45;;;;;;;8.29;63.21;101263.94;5067427;28;20127;-72
2021/11/16 04:47:25;;;;;;;59.85;34.67;;;;;;;8.30;63.11;101275.31;5066379;28;20045;-72
2021/11/16 04:49:57;;;;;;;63.67;30.83;;;;;;;8.33;63.23;101278.66;5066556;28;20044;-72
2021/11/16 04:52:31;;;;;;;52.85;26.50;;;;;;;8.35;63.13;101283.88;5066889;28;20182;-73
2021/11/16 04:55:20;;;;;;;60.15;29.88;;;;;;;8.37;63.09;101287.28;5066539;28;20639;-73
2021/11/16 05:03:16;;;;;;;56.65;31.85;;;;;;;8.38;63.09;101287.22;5067280;28;20075;-73
2021/11/16 05:05:43;;;;;;;64.47;30.23;;;;;;;8.39;63.07;101282.78;5065534;28;20049;-73
2021/11/16 05:08:11;;;;;;;61.33;32.05;;;;;;;8.39;63.05;101288.94;5067267;28;20090;-72
2021/11/16 05:10:40;;;;;;;55.08;32.03;;;;;;;8.39;63.11;101291.56;5065868;28;20496;-73
2021/11/16 05:13:07;;;;;;;59.90;33.40;;;;;;;8.39;63.17;101286.28;5066302;28;20135;-73
2021/11/16 05:15:36;;;;;;;64.35;28.90;;;;;;;8.38;63.21;101284.56;5066479;28;20436;-72
2021/11/16 05:18:04;;;;;;;60.65;28.98;;;;;;;8.37;63.19;101280.25;5065184;28;20802;-74
2021/11/16 05:20:30;;;;;;;54.63;29.92;;;;;;;8.34;63.04;101285.66;5066018;28;20040;-73
2021/11/16 05:22:58;;;;;;;64.90;32.33;;;;;;;8.36;63.17;101288.22;5067615;28;20044;-72
2021/11/16 05:25:25;;;;;;;59.75;31.52;;;;;;;8.34;63.20;101285.66;5070188;28;20059;-73
2021/11/16 05:27:53;;;;;;;60.88;32.55;;;;;;;8.36;63.31;101282.94;5070440;28;20046;-73
2021/11/16 05:30:26;;;;;;;58.17;29.70;;;;;;;8.38;63.26;101289.00;5068776;28;20490;-72
2021/11/16 05:32:54;;;;;;;53.08;31.13;;;;;;;8.38;63.02;101291.63;5069891;28;20147;-73
2021/11/16 05:35:22;;;;;;;67.28;34.50;;;;;;;8.37;63.32;101296.03;5065373;28;20040;-76
2021/11/16 05:37:49;;;;;;;61.05;31.48;;;;;;;8.41;63.15;101292.34;5067246;28;20139;-75
2021/11/16 05:40:19;;;;;;;65.03;33.88;;;;;;;8.43;63.15;101289.66;5066792;28;20052;-73
2021/11/16 05:42:46;;;;;;;67.22;32.63;;;;;;;8.43;63.05;101281.78;5065503;28;20058;-73
2021/11/16 05:45:15;;;;;;;64.60;33.35;;;;;;;8.44;63.11;101288.72;5048726;28;20048;-76
2021/11/16 05:47:42;;;;;;;59.92;31.50;;;;;;;8.46;63.21;101297.41;5063715;28;20514;-80
2021/11/16 05:50:11;;;;;;;68.70;38.00;;;;;;;8.47;63.09;101293.84;5067878;28;20049;-76
2021/11/16 05:52:38;;;;;;;62.80;33.00;;;;;;;8.50;63.25;101298.13;5069145;28;20061;-74
2021/11/16 05:55:08;;;;;;;68.82;34.17;;;;;;;8.52;63.11;101298.91;5072365;28;20045;-73
2021/11/16 05:57:36;;;;;;;67.53;30.45;;;;;;;8.53;62.79;101300.59;5069711;28;20052;-73
2021/11/16 06:00:06;;;;;;;59.92;32.15;;;;;;;8.53;62.98;101305.88;5067470;28;20467;-71
2021/11/16 06:02:34;;;;;;;60.92;30.98;;;;;;;8.55;62.86;101304.91;5065315;28;20052;-71
2021/11/16 06:05:03;;;;;;;65.25;32.50;;;;;;;8.55;63.07;101310.16;5065484;28;20049;-73
2021/11/16 06:07:30;;;;;;;54.70;29.42;;;;;;;8.58;62.97;101304.72;5072473;28;20131;-74
2021/11/16 06:09:57;;;;;;;56.78;31.40;;;;;;;8.61;62.83;101293.22;5071607;28;20124;-73
2021/11/16 06:12:24;;;;;;;60.47;31.52;;;;;;;8.69;62.83;101306.00;5068457;28;20044;-73
2021/11/16 06:14:51;;;;;;;55.00;29.60;;;;;;;8.77;62.70;101306.50;5067536;28;20045;-73
2021/11/16 06:17:20;;;;;;;60.63;30.92;;;;;;;8.78;62.66;101308.19;5068978;28;20055;-76
2021/11/16 06:19:49;;;;;;;61.35;30.50;;;;;;;8.81;62.56;101310.69;5070026;28;20442;-73
2021/11/16 06:22:15;;;;;;;60.88;30.20;;;;;;;8.80;62.37;101308.97;5070261;28;20087;-73
2021/11/16 06:24:42;;;;;;;59.42;29.38;;;;;;;8.82;62.53;101307.13;5068114;28;20044;-72
2021/11/16 06:27:10;;;;;;;60.35;28.80;;;;;;;8.83;62.47;101308.84;5068427;28;20059;-73
2021/11/16 06:29:38;;;;;;;60.65;29.45;;;;;;;8.91;62.40;101301.44;5066345;28;20052;-76
2021/11/16 06:32:06;;;;;;;58.33;30.17;;;;;;;8.95;62.35;101302.13;5067771;28;20049;-73
2021/11/16 06:34:33;;;;;;;56.00;27.25;;;;;;;8.94;62.22;101306.53;5066042;28;20466;-75
2021/11/16 06:37:03;;;;;;;58.53;29.08;;;;;;;8.93;62.23;101303.97;5068204;28;20054;-75
2021/11/16 06:39:30;;;;;;;52.38;29.08;;;;;;;8.89;62.37;101303.25;5068806;28;20056;-74
2021/11/16 06:41:59;;;;;;;60.05;29.85;;;;;;;8.86;62.41;101308.69;5068186;28;20044;-74
2021/11/16 06:44:27;;;;;;;62.70;31.90;;;;;;;8.85;62.45;101304.34;5069728;28;20054;-74
2021/11/16 06:46:56;;;;;;;52.00;27.42;;;;;;;8.89;62.39;101303.25;5069649;28;20058;-74
2021/11/16 06:49:23;;;;;;;57.83;28.45;;;;;;;8.91;62.32;101305.81;5080768;28;20032;-75
2021/11/16 06:51:53;;;;;;;55.47;29.98;;;;;;;8.94;62.08;101301.25;5087550;28;20050;-76
2021/11/16 06:54:23;;;;;;;63.42;31.02;;;;;;;8.99;62.14;101299.25;5087426;28;20037;-75
2021/11/16 06:56:51;;;;;;;52.22;27.80;;;;;;;8.99;62.14;101293.97;5092208;28;20071;-77
2021/11/16 06:59:20;;;;;;;59.25;31.60;;;;;;;9.02;61.98;101295.63;5091350;28;20083;-76
2021/11/16 07:01:47;;;;;;;59.03;32.50;;;;;;;9.09;61.92;101301.44;5092203;28;20056;-77
2021/11/16 07:04:14;;;;;;;57.90;29.50;;;;;;;9.17;61.62;101301.91;5088834;28;20076;-77
2021/11/16 07:06:47;;;;;;;70.18;30.35;;;;;;;9.22;61.71;101306.94;5088334;28;20056;-74
2021/11/16 07:09:16;;;;;;;62.83;30.27;;;;;;;9.21;61.65;101303.47;5084821;28;20044;-75
2021/11/16 07:11:46;;;;;;;61.28;32.05;;;;;;;9.26;61.42;101305.88;5084928;28;20124;-77
2021/11/16 07:14:15;;;;;;;56.85;28.75;;;;;;;9.26;61.50;101296.19;5081080;28;20055;-78
2021/11/16 07:16:44;;;;;;;55.75;29.88;;;;;;;9.33;61.30;101292.31;5082582;28;20063;-75
2021/11/16 07:19:13;;;;;;;60.75;31.70;;;;;;;9.38;61.47;101289.41;5079068;28;20045;-74
2021/11/16 07:21:46;;;;;;;58.80;30.88;;;;;;;9.43;61.36;101286.56;5055763;28;20049;-73
2021/11/16 07:24:16;;;;;;;56.67;31.67;;;;;;;9.44;61.21;101289.13;5078889;28;20083;-74
2021/11/16 07:26:55;;;;;;;58.13;29.98;;;;;;;9.45;61.07;101284.69;5083178;28;20044;-73
2021/11/16 07:29:34;;;;;;;57.35;29.80;;;;;;;9.44;61.16;101277.72;5068500;28;20106;-77
2021/11/16 07:32:03;;;;;;;61.85;31.75;;;;;;;9.38;61.07;101281.50;5087372;28;20057;-74
2021/11/16 07:34:33;;;;;;;55.92;31.38;;;;;;;9.40;61.23;101281.44;5084820;28;20055;-75
2021/11/16 07:37:05;;;;;;;57.63;30.50;;;;;;;9.40;61.15;101273.53;5070313;28;20607;-73
2021/11/16 07:39:44;;;;;;;54.53;30.55;;;;;;;9.39;61.24;101264.75;5075579;28;20040;-72
2021/11/16 07:42:12;;;;;;;54.90;28.75;;;;;;;9.44;60.97;101267.19;5074976;28;20028;-73
2021/11/16 07:44:39;;;;;;;60.17;32.58;;;;;;;9.47;60.98;101272.28;5062944;28;20060;-73
2021/11/16 07:47:06;;;;;;;55.88;28.65;;;;;;;9.51;60.84;101268.56;5074301;28;20051;-72
2021/11/16 07:49:34;;;;;;;55.15;32.47;;;;;;;9.52;60.84;101264.97;5076333;28;20080;-73
2021/11/16 07:52:03;;;;;;;54.92;29.70;;;;;;;9.53;60.82;101270.19;5078597;28;20059;-78
2021/11/16 07:54:32;;;;;;;58.95;31.23;;;;;;;9.59;60.89;101268.16;5070669;28;20079;-72
2021/11/16 07:57:04;;;;;;;59.47;33.83;;;;;;;9.58;60.90;101267.31;5073910;28;20118;-73
2021/11/16 07:59:33;;;;;;;51.60;27.65;;;;;;;9.60;60.53;101268.09;5072280;28;20052;-71
2021/11/16 08:02:03;;;;;;;62.80;32.20;;;;;;;9.58;60.72;101269.97;5077205;28;20052;-74
2021/11/16 08:04:37;;;;;;;62.17;33.53;;;;;;;9.60;60.53;101262.81;5079429;28;20041;-74
2021/11/16 08:07:45;;;;;;;;;;;;;;;;;;;;;
2021/11/16 08:10:20;;;;;;;63.63;31.92;;;;;;;9.72;60.37;101264.81;5170750;22;20135;-76
2021/11/16 08:12:49;;;;;;;58.78;30.05;;;;;;;9.73;60.20;101263.00;5088987;28;20123;-77
2021/11/16 08:15:18;;;;;;;61.50;34.50;;;;;;;9.74;60.36;101255.03;5089379;28;20044;-72
2021/11/16 08:17:46;;;;;;;58.53;30.92;;;;;;;9.78;60.24;101247.81;5086500;28;20048;-76
2021/11/16 08:20:16;;;;;;;56.35;33.15;;;;;;;9.85;60.14;101243.03;5086154;28;20070;-75
2021/11/16 08:22:45;;;;;;;59.75;31.85;;;;;;;9.91;59.86;101234.78;5089402;28;20447;-74
2021/11/16 08:25:13;;;;;;;58.60;32.53;;;;;;;10.01;59.69;101235.13;5088031;28;20462;-75
2021/11/16 08:27:43;;;;;;;58.63;31.60;;;;;;;10.06;59.68;101233.94;5070208;28;20674;-73
2021/11/16 08:30:21;;;;;;;57.85;31.73;;;;;;;10.16;59.37;101230.84;5088257;28;20131;-74
2021/11/16 08:32:57;;;;;;;55.25;27.05;;;;;;;10.18;59.41;101228.94;5085484;28;20776;-77
2021/11/16 08:35:25;;;;;;;51.53;28.33;;;;;;;10.16;59.44;101230.84;5085057;28;20044;-75
2021/11/16 08:37:56;;;;;;;60.90;32.22;;;;;;;10.21;59.20;101226.13;5084348;28;20044;-73
2021/11/16 08:40:26;;;;;;;58.88;31.40;;;;;;;10.25;59.21;101225.03;5083497;28;20044;-74
2021/11/16 08:42:57;;;;;;;55.63;31.38;;;;;;;10.35;59.03;101225.38;5086026;28;20483;-74
2021/11/16 08:45:28;;;;;;;56.90;31.10;;;;;;;10.46;58.83;101223.00;5084925;28;20484;-73
2021/11/16 08:47:58;;;;;;;55.78;31.27;;;;;;;10.58;58.75;101226.75;5084477;28;20606;-75
2021/11/16 08:50:29;;;;;;;60.38;33.10;;;;;;;10.60;58.63;101216.94;5084711;28;20628;-72
2021/11/16 08:52:57;;;;;;;61.75;33.67;;;;;;;10.61;58.43;101216.00;5084375;28;20123;-72
2021/11/16 08:55:28;;;;;;;64.43;33.83;;;;;;;10.63;58.63;101219.41;5086328;28;20550;-70
2021/11/16 08:57:58;;;;;;;64.50;33.75;;;;;;;10.65;58.38;101210.44;5083581;28;20671;-72
2021/11/16 09:00:30;;;;;;;62.25;34.38;;;;;;;10.65;58.55;101218.38;5084792;28;20048;-72
2021/11/16 09:03:04;;;;;;;69.82;31.88;;;;;;;10.62;58.49;101215.91;5083413;28;20116;-74
2021/11/16 09:05:33;;;;;;;63.08;33.47;;;;;;;10.59;58.64;101223.13;5084411;28;20048;-79
2021/11/16 09:08:02;;;;;;;64.60;30.02;;;;;;;10.61;58.46;101221.28;5085668;28;20176;-73
2021/11/16 09:10:35;;;;;;;54.08;29.40;;;;;;;10.62;58.71;101221.19;5063915;28;20480;-74
2021/11/16 09:13:04;;;;;;;57.25;32.33;;;;;;;10.64;58.12;101223.72;5064793;28;20527;-74
2021/11/16 09:15:36;;;;;;;53.53;27.52;;;;;;;10.54;58.35;101222.59;5064084;28;20048;-77
2021/11/16 09:18:16;;;;;;;57.53;29.95;;;;;;;10.45;58.61;101216.88;5064275;28;20048;-76
2021/11/16 09:20:45;;;;;;;59.78;30.20;;;;;;;10.40;58.60;101218.06;5070172;28;20045;-78
2021/11/16 09:23:21;;;;;;;54.70;28.52;;;;;;;10.36;58.80;101213.91;5076735;28;20136;-77
2021/11/16 09:25:52;;;;;;;60.53;28.80;;;;;;;10.40;58.65;101220.72;5073798;28;20044;-80
2021/11/16 09:31:21;;;;;;;60.08;28.10;;;;;;;10.50;58.46;101209.53;5074820;28;20071;-74
2021/11/16 09:33:49;;;;;;;53.75;26.30;;;;;;;10.57;58.02;101206.53;5079069;28;20119;-75
2021/11/16 09:36:24;;;;;;;50.38;28.42;;;;;;;10.64;58.22;101210.53;5064573;28;20041;-73
2021/11/16 09:38:54;;;;;;;51.55;29.45;;;;;;;10.70;57.78;101211.03;5069801;28;20113;-74
2021/11/16 09:41:30;;;;;;;55.53;29.80;;;;;;;10.74;57.93;101214.34;5062057;28;20056;-71
2021/11/16 09:44:00;;;;;;;51.78;26.88;;;;;;;10.78;57.74;101212.38;5045589;28;20045;-74
2021/11/16 09:46:29;;;;;;;47.72;25.35;;;;;;;10.77;57.63;101208.91;5064157;28;20047;-74
2021/11/16 09:49:04;;;;;;;40.35;22.58;;;;;;;10.65;57.95;101220.16;5047102;28;20085;-75
2021/11/16 09:51:31;;;;;;;46.23;27.30;;;;;;;10.65;57.80;101214.88;5067496;28;20059;-73
2021/11/16 09:54:06;;;;;;;52.65;24.33;;;;;;;10.59;58.00;101217.84;5048055;28;20067;-78
2021/11/16 09:56:34;;;;;;;47.67;25.02;;;;;;;10.51;58.08;101211.25;5073959;28;20040;-74
2021/11/16 09:59:04;;;;;;;48.17;26.80;;;;;;;10.41;58.25;101207.41;5079456;28;20146;-74
2021/11/16 10:01:37;;;;;;;46.28;24.80;;;;;;;10.41;58.33;101203.94;5064748;28;20049;-75
2021/11/16 10:04:24;;;;;;;53.13;28.42;;;;;;;10.53;58.35;101195.28;5063304;28;20060;-76
2021/11/16 10:06:51;;;;;;;49.40;27.77;;;;;;;10.64;57.83;101197.31;5067986;28;20101;-75
2021/11/16 10:09:20;;;;;;;48.67;25.88;;;;;;;10.66;57.90;101195.44;5066656;28;20041;-72
2021/11/16 10:11:53;;;;;;;45.25;26.50;;;;;;;10.69;57.64;101201.38;5083253;28;20108;-81
2021/11/16 10:14:23;;;;;;;42.40;26.15;;;;;;;10.78;57.68;101197.38;5083033;28;20032;-75
2021/11/16 10:16:52;;;;;;;44.20;25.90;;;;;;;10.86;57.62;101189.00;5083598;28;20052;-77
2021/11/16 10:19:21;;;;;;;52.22;27.73;;;;;;;10.88;57.58;101190.63;5083789;28;20098;-76
2021/11/16 10:21:49;;;;;;;53.67;28.05;;;;;;;10.97;57.41;101188.38;5081049;28;20075;-75
2021/11/16 10:24:29;;;;;;;52.22;29.75;;;;;;;10.97;57.29;101183.94;5083142;28;20313;-74
2021/11/16 10:27:00;;;;;;;46.03;27.17;;;;;;;10.94;57.23;101177.97;5074264;28;20622;-71
2021/11/16 10:29:27;;;;;;;50.75;27.83;;;;;;;10.99;57.34;101173.28;5067196;28;20052;-72
2021/11/16 10:31:55;;;;;;;46.42;27.08;;;;;;;11.04;57.23;101174.69;5078068;28;20055;-73
2021/11/16 10:34:39;;;;;;;47.88;25.10;;;;;;;11.09;57.30;101172.63;5067705;28;20056;-72
2021/11/16 10:37:07;;;;;;;57.05;28.95;;;;;;;11.10;57.22;101170.84;5069922;28;20408;-74
2021/11/16 10:39:34;;;;;;;47.88;28.17;;;;;;;11.09;57.08;101169.13;5069361;28;20508;-74
2021/11/16 10:42:04;;;;;;;59.08;26.73;;;;;;;10.98;57.33;101158.34;5080674;28;20102;-72
2021/11/16 10:44:36;;;;;;;52.17;29.83;;;;;;;10.95;57.46;101158.53;5070522;28;20488;-74
2021/11/16 10:47:06;;;;;;;45.95;26.58;;;;;;;11.04;57.24;101163.28;5071385;28;20369;-74
2021/11/16 10:49:35;;;;;;;50.40;27.42;;;;;;;11.02;57.33;101167.78;5073810;28;20055;-75
2021/11/16 10:52:02;;;;;;;52.95;27.27;;;;;;;10.99;57.17;101162.72;5072442;28;20752;-75
2021/11/16 10:54:29;;;;;;;53.90;26.10;;;;;;;10.93;57.29;101160.41;5071026;28;20056;-73
2021/11/16 10:57:00;;;;;;;49.08;26.92;;;;;;;10.89;57.41;101160.63;5077375;28;20035;-76
2021/11/16 10:59:32;;;;;;;52.60;26.15;;;;;;;10.90;57.36;101157.00;5085084;28;20048;-75
2021/11/16 11:02:01;;;;;;;52.67;26.85;;;;;;;10.88;57.53;101156.25;5075085;28;20060;-73
2021/11/16 11:04:40;;;;;;;55.13;27.98;;;;;;;10.86;57.54;101157.31;5070216;28;20040;-73
2021/11/16 11:07:14;;;;;;;59.15;29.27;;;;;;;10.88;57.60;101148.31;5072660;28;20044;-73
2021/11/16 11:09:42;;;;;;;52.65;26.45;;;;;;;10.97;57.44;101149.56;5071161;28;20045;-74
2021/11/16 11:12:24;;;;;;;54.17;25.20;;;;;;;11.00;57.41;101151.16;5071353;28;20052;-73
2021/11/16 11:14:54;;;;;;;55.63;28.17;;;;;;;11.03;57.29;101148.34;5074689;28;20538;-75
2021/11/16 11:17:34;;;;;;;55.65;28.83;;;;;;;11.09;57.30;101145.31;5059850;28;20584;-74
2021/11/16 11:20:11;;;;;;;57.65;29.05;;;;;;;11.20;57.17;101136.75;5086607;28;20056;-74
2021/11/16 11:22:43;;;;;;;52.08;28.08;;;;;;;11.20;57.08;101134.09;5081571;28;20051;-74
2021/11/16 11:25:33;;;;;;;58.67;29.67;;;;;;;11.21;56.98;101131.38;5082572;28;20036;-83
2021/11/16 11:28:01;;;;;;;52.25;30.27;;;;;;;11.24;56.93;101127.69;5064986;28;20049;-74
2021/11/16 11:30:32;;;;;;;58.90;29.92;;;;;;;11.22;57.00;101129.59;5062604;28;20071;-77
2021/11/16 11:32:59;;;;;;;59.45;29.38;;;;;;;11.20;57.11;101124.41;5065297;28;20025;-74
2021/11/16 11:35:30;;;;;;;56.80;28.98;;;;;;;11.23;57.00;101110.97;5067887;28;20132;-74